createdAt,value
2018-06-19T00:03:32.804Z,101589.73
2018-06-19T00:08:35.942Z,101587.13
2018-06-19T00:13:39.056Z,101582.45
2018-06-19T00:18:44.657Z,101584.97
2018-06-19T00:23:47.859Z,101582.27
2018-06-19T00:28:51.117Z,101583.25
2018-06-19T00:33:54.350Z,101576.06
2018-06-19T00:38:57.459Z,101580.02
2018-06-19T00:44:01.161Z,101578.61
2018-06-19T00:49:05.062Z,101571.92
2018-06-19T00:54:08.131Z,101577.72
2018-06-19T00:59:11.253Z,101573.09
2018-06-19T01:04:14.371Z,101575.71
2018-06-19T01:09:17.515Z,101573.51
2018-06-19T01:14:20.669Z,101570.15
2018-06-19T01:19:23.816Z,101568.14
2018-06-19T01:24:26.929Z,101578.66
2018-06-19T01:29:30.022Z,101577.50
2018-06-19T01:34:33.145Z,101572.72
2018-06-19T01:39:36.272Z,101571.00
2018-06-19T01:44:39.436Z,101566.75
2018-06-19T01:49:42.527Z,101569.08
2018-06-19T01:54:45.675Z,101567.45
2018-06-19T01:59:48.868Z,101567.41
2018-06-19T02:04:51.993Z,101567.80
2018-06-19T02:09:55.155Z,101566.41
2018-06-19T02:14:58.251Z,101566.99
2018-06-19T02:20:01.362Z,101562.72
2018-06-19T02:25:04.995Z,101570.73
2018-06-19T02:30:08.136Z,101566.19
2018-06-19T02:35:11.284Z,101569.20
2018-06-19T02:40:14.390Z,101563.53
2018-06-19T02:45:18.219Z,101568.62
2018-06-19T02:50:21.494Z,101567.52
2018-06-19T02:55:24.605Z,101570.38
2018-06-19T03:00:27.834Z,101571.47
2018-06-19T03:05:32.060Z,101569.71
2018-06-19T03:10:35.152Z,101591.12
2018-06-19T03:15:38.310Z,101595.28
2018-06-19T03:20:41.440Z,101599.75
2018-06-19T03:25:45.528Z,101607.95
2018-06-19T03:30:48.922Z,101618.41
2018-06-19T03:35:52.363Z,101618.73
2018-06-19T03:40:55.585Z,101609.63
2018-06-19T03:45:58.843Z,101613.93
2018-06-19T03:51:02.046Z,101617.91
2018-06-19T03:56:05.161Z,101632.09
2018-06-19T04:01:08.459Z,101631.70
2018-06-19T04:06:11.791Z,101636.14
2018-06-19T04:11:15.077Z,101640.31
2018-06-19T04:16:18.169Z,101647.50
2018-06-19T04:21:21.308Z,101648.34
2018-06-19T04:26:26.599Z,101652.67
2018-06-19T04:31:29.849Z,101659.84
2018-06-19T04:36:33.055Z,101655.73
2018-06-19T04:41:36.255Z,101659.09
2018-06-19T04:46:39.430Z,101660.68
2018-06-19T04:51:42.561Z,101660.66
2018-06-19T04:56:45.747Z,101663.00
2018-06-19T05:01:48.899Z,101657.16
2018-06-19T05:06:52.092Z,101673.08
2018-06-19T05:11:55.337Z,101664.84
2018-06-19T05:16:58.485Z,101678.20
2018-06-19T05:22:01.658Z,101682.14
2018-06-19T05:27:04.985Z,101677.45
2018-06-19T05:32:10.407Z,101678.31
2018-06-19T05:37:13.622Z,101688.10
2018-06-19T05:42:17.690Z,101681.09
2018-06-19T05:47:20.823Z,101684.39
2018-06-19T05:52:23.942Z,101688.01
2018-06-19T05:57:27.102Z,101687.52
2018-06-19T06:02:30.321Z,101706.09
2018-06-19T06:07:33.491Z,101705.02
2018-06-19T06:12:36.661Z,101692.13
2018-06-19T06:17:40.016Z,101702.58
2018-06-19T06:22:43.170Z,101694.78
2018-06-19T06:27:46.305Z,101702.22
2018-06-19T06:32:49.492Z,101714.77
2018-06-19T06:37:52.608Z,101715.08
2018-06-19T06:42:55.936Z,101717.38
2018-06-19T06:47:59.282Z,101709.59
2018-06-19T06:53:02.432Z,101694.48
2018-06-19T06:58:05.637Z,101696.39
2018-06-19T07:03:08.799Z,101704.16
2018-06-19T07:08:11.913Z,101704.36
2018-06-19T07:13:15.403Z,101698.59
2018-06-19T07:18:18.519Z,101690.23
2018-06-19T07:23:21.708Z,101693.22
2018-06-19T07:28:25.161Z,101698.61
2018-06-19T07:33:28.451Z,101704.33
2018-06-19T07:38:31.647Z,101702.27
2018-06-19T07:43:34.903Z,101706.41
2018-06-19T07:48:38.066Z,101708.41
2018-06-19T07:53:41.206Z,101698.46
2018-06-19T07:58:44.331Z,101702.95
2018-06-19T08:03:47.486Z,101710.52
2018-06-19T08:08:50.649Z,101708.53
2018-06-19T08:13:53.796Z,101716.75
2018-06-19T08:18:56.971Z,101712.25
2018-06-19T08:24:00.112Z,101710.65
2018-06-19T08:29:03.449Z,101706.82
2018-06-19T08:34:06.778Z,101704.63
2018-06-19T08:39:09.920Z,101707.81
2018-06-19T08:44:13.102Z,101700.97
2018-06-19T08:49:16.266Z,101715.89
2018-06-19T08:54:19.433Z,101703.70
2018-06-19T08:59:22.563Z,101717.37
2018-06-19T09:04:26.700Z,101702.05
2018-06-19T09:09:29.926Z,101699.09
2018-06-19T09:14:33.165Z,101705.39
2018-06-19T09:19:37.261Z,101701.88
2018-06-19T09:24:40.417Z,101695.09
2018-06-19T09:29:43.623Z,101701.32
2018-06-19T09:34:46.767Z,101703.09
2018-06-19T09:39:49.996Z,101691.47
2018-06-19T09:44:53.189Z,101690.07
2018-06-19T09:49:56.407Z,101694.91
2018-06-19T09:55:00.594Z,101691.05
2018-06-19T10:00:05.132Z,101692.41
2018-06-19T10:05:08.526Z,101695.61
2018-06-19T10:10:12.064Z,101696.70
2018-06-19T10:15:17.017Z,101706.43
2018-06-19T10:20:21.994Z,101707.00
2018-06-19T10:25:25.282Z,101707.89
2018-06-19T10:30:28.601Z,101711.70
2018-06-19T10:35:31.797Z,101707.70
2018-06-19T10:40:34.947Z,101715.86
2018-06-19T10:45:38.958Z,101716.42
2018-06-19T10:50:43.881Z,101723.90
2018-06-19T10:55:48.193Z,101731.36
2018-06-19T11:00:53.134Z,101714.73
2018-06-19T11:05:56.358Z,101723.69
2018-06-19T11:11:01.404Z,101730.27
2018-06-19T11:16:06.403Z,101729.67
2018-06-19T11:21:10.150Z,101716.59
2018-06-19T11:26:13.324Z,101732.74
2018-06-19T11:31:16.719Z,101735.74
2018-06-19T11:36:19.994Z,101742.67
2018-06-19T11:41:23.204Z,101741.00
2018-06-19T11:46:26.448Z,101735.13
2018-06-19T11:51:30.807Z,101731.69
2018-06-19T11:56:34.393Z,101718.28
2018-06-19T12:01:37.630Z,101721.92
2018-06-19T12:06:41.327Z,101723.32
2018-06-19T12:11:44.422Z,101712.03
2018-06-19T12:16:47.676Z,101704.05
2018-06-19T12:21:50.935Z,101713.21
2018-06-19T12:26:54.185Z,101713.26
2018-06-19T12:31:57.840Z,101712.76
2018-06-19T12:37:01.089Z,101720.34
2018-06-19T12:42:04.312Z,101712.88
2018-06-19T12:47:07.569Z,101733.24
2018-06-19T12:52:21.878Z,101718.32
2018-06-19T12:57:25.045Z,101714.66
2018-06-19T13:02:28.151Z,101721.52
2018-06-19T13:07:31.239Z,101723.12
2018-06-19T13:13:47.421Z,101725.52
2018-06-19T13:19:01.659Z,101722.39
2018-06-19T13:24:04.906Z,101724.27
2018-06-19T13:29:44.590Z,101725.88
2018-06-19T13:34:47.753Z,101728.95
2018-06-19T13:41:03.653Z,101729.21
2018-06-19T13:46:06.827Z,101727.03
2018-06-19T13:51:10.042Z,101729.93
2018-06-19T13:57:24.574Z,101732.62
2018-06-19T14:02:27.939Z,101734.33
2018-06-19T14:07:31.123Z,101739.47
2018-06-19T14:12:46.415Z,101739.38
2018-06-19T14:17:49.550Z,101749.65
2018-06-19T14:22:52.713Z,101750.94
2018-06-19T14:27:55.856Z,101750.41
2018-06-19T14:32:59.477Z,101753.50
2018-06-19T14:38:03.201Z,101768.05
2018-06-19T14:43:06.948Z,101765.32
2018-06-19T14:48:10.130Z,101766.22
2018-06-19T14:53:13.319Z,101757.08
2018-06-19T14:58:16.525Z,101761.11
2018-06-19T15:03:19.774Z,101756.80
2018-06-19T15:08:23.053Z,101765.37
2018-06-19T15:13:26.274Z,101773.17
2018-06-19T15:18:29.608Z,101764.72
2018-06-19T15:23:32.782Z,101771.84
2018-06-19T15:28:36.089Z,101781.38
2018-06-19T15:33:39.602Z,101766.89
2018-06-19T15:38:42.959Z,101775.91
2018-06-19T15:43:46.054Z,101774.45
2018-06-19T15:48:49.202Z,101779.99
2018-06-19T15:54:05.933Z,101783.55
2018-06-19T15:59:11.252Z,101781.70
2018-06-19T16:04:15.740Z,101775.73
2018-06-19T16:09:20.949Z,101771.95
2018-06-19T16:14:24.070Z,101775.92
2018-06-19T16:19:27.232Z,101776.17
2018-06-19T16:24:30.368Z,101772.36
2018-06-19T16:29:34.837Z,101769.95
2018-06-19T16:34:39.925Z,101772.98
2018-06-19T16:39:44.362Z,101776.79
2018-06-19T16:44:48.672Z,101779.76
2018-06-19T16:49:53.331Z,101774.50
2018-06-19T16:54:58.118Z,101779.78
2018-06-19T17:00:01.702Z,101770.49
2018-06-19T17:05:04.995Z,101767.80
2018-06-19T17:10:08.389Z,101770.19
2018-06-19T17:15:11.549Z,101773.20
2018-06-19T17:20:14.683Z,101772.59
2018-06-19T17:25:17.817Z,101770.34
2018-06-19T17:30:21.550Z,101769.75
2018-06-19T17:35:24.702Z,101775.45
2018-06-19T17:40:27.898Z,101775.10
2018-06-19T17:45:31.594Z,101779.64
2018-06-19T17:50:35.309Z,101783.52
2018-06-19T17:55:38.893Z,101784.70
2018-06-19T18:00:42.515Z,101785.71
2018-06-19T18:05:45.769Z,101778.89
2018-06-19T18:10:49.029Z,101784.58
2018-06-19T18:15:52.100Z,101778.42
2018-06-19T18:20:55.968Z,101776.16
2018-06-19T18:25:59.233Z,101769.70
2018-06-19T18:31:02.504Z,101776.76
2018-06-19T18:36:05.742Z,101780.72
2018-06-19T18:41:09.165Z,101782.91
2018-06-19T18:46:13.174Z,101783.16
2018-06-19T18:51:16.913Z,101782.05
2018-06-19T18:56:21.335Z,101793.20
2018-06-19T19:01:24.886Z,101799.20
2018-06-19T19:06:29.776Z,101804.28
2018-06-19T19:11:34.542Z,101800.59
2018-06-19T19:16:39.056Z,101807.66
2018-06-19T19:21:43.994Z,101809.87
2018-06-19T19:26:50.569Z,101816.63
2018-06-19T19:31:55.632Z,101828.48
2018-06-19T19:36:58.749Z,101832.58
2018-06-19T19:42:02.047Z,101845.12
2018-06-19T19:47:05.244Z,101843.86
2018-06-19T19:52:10.578Z,101852.33
2018-06-19T19:57:19.509Z,101849.69
2018-06-19T20:02:26.216Z,101859.12
2018-06-19T20:07:30.679Z,101862.69
2018-06-19T20:12:33.883Z,101866.27
2018-06-19T20:17:37.185Z,101868.46
2018-06-19T20:22:41.057Z,101863.39
2018-06-19T20:27:44.149Z,101870.23
2018-06-19T20:32:47.619Z,101872.94
2018-06-19T20:37:50.740Z,101880.27
2018-06-19T20:42:54.258Z,101885.28
2018-06-19T20:48:02.143Z,101890.63
2018-06-19T20:53:08.056Z,101887.37
2018-06-19T20:58:11.569Z,101889.98
2018-06-19T21:03:14.718Z,101890.30
2018-06-19T21:08:17.823Z,101889.48
2018-06-19T21:13:21.187Z,101901.03
2018-06-19T21:18:24.326Z,101888.72
2018-06-19T21:23:27.433Z,101896.14
2018-06-19T21:28:30.548Z,101898.72
2018-06-19T21:33:34.029Z,101909.59
2018-06-19T21:38:39.086Z,101914.56
2018-06-19T21:43:42.268Z,101906.95
2018-06-19T21:48:45.419Z,101913.23
2018-06-19T21:53:48.557Z,101912.95
2018-06-19T21:58:52.193Z,101913.12
2018-06-19T22:03:55.297Z,101919.28
2018-06-19T22:08:58.469Z,101914.42
2018-06-19T22:14:01.708Z,101917.91
2018-06-19T22:19:04.918Z,101922.39
2018-06-19T22:24:08.117Z,101918.23
2018-06-19T22:29:13.307Z,101913.55
2018-06-19T22:34:16.405Z,101910.78
2018-06-19T22:39:19.538Z,101920.59
2018-06-19T22:44:22.626Z,101919.77
2018-06-19T22:49:25.721Z,101915.28
2018-06-19T22:54:28.857Z,101929.99
2018-06-19T22:59:32.068Z,101925.47
2018-06-19T23:04:35.180Z,101926.80
2018-06-19T23:09:38.334Z,101938.45
2018-06-19T23:14:41.456Z,101934.77
2018-06-19T23:19:44.626Z,101938.30
2018-06-19T23:24:47.754Z,101942.72
2018-06-19T23:29:50.837Z,101941.02
2018-06-19T23:34:54.017Z,101954.38
2018-06-19T23:39:58.236Z,101954.20
2018-06-19T23:45:01.425Z,101954.36
2018-06-19T23:50:04.761Z,101957.06
2018-06-19T23:55:07.950Z,101959.70
